createdAt,value
2023-05-14T00:01:26.625Z,101943.34
2023-05-14T00:06:28.155Z,101944.38
2023-05-14T00:11:30.047Z,101936.28
2023-05-14T00:16:31.687Z,101932.31
2023-05-14T00:21:33.601Z,101937.94
2023-05-14T00:26:35.208Z,101942.38
2023-05-14T00:31:37.045Z,101936.34
2023-05-14T00:36:38.657Z,101942.97
2023-05-14T00:41:40.264Z,101932.94
2023-05-14T00:46:43.789Z,101930.63
2023-05-14T00:51:47.091Z,101920.34
2023-05-14T00:56:49.198Z,101915.38
2023-05-14T01:01:51.119Z,101908.28
2023-05-14T01:07:34.777Z,101917.34
2023-05-14T01:13:00.994Z,101913.41
2023-05-14T01:18:08.742Z,101912.47
2023-05-14T01:23:10.356Z,101908.78
2023-05-14T01:28:29.636Z,101903.69
2023-05-14T01:33:33.869Z,101898.22
2023-05-14T01:38:36.448Z,101899.81
2023-05-14T01:43:39.093Z,101901.63
2023-05-14T01:48:41.484Z,101893.66
2023-05-14T01:53:43.383Z,101892.75
2023-05-14T01:58:44.913Z,101898.28
2023-05-14T02:03:46.473Z,101893.97
2023-05-14T02:08:50.798Z,101882.09
2023-05-14T02:13:52.339Z,101881.31
2023-05-14T02:18:54.011Z,101877.72
2023-05-14T02:23:56.763Z,101873.84
2023-05-14T02:28:58.353Z,101870.28
2023-05-14T02:34:04.877Z,101869.75
2023-05-14T02:39:07.573Z,101861.41
2023-05-14T02:44:09.199Z,101867.44
2023-05-14T02:49:10.936Z,101857.81
2023-05-14T02:54:12.456Z,101862.69
2023-05-14T02:59:16.727Z,101859.88
2023-05-14T03:04:18.997Z,101867.34
2023-05-14T03:09:20.698Z,101863.78
2023-05-14T03:14:22.336Z,101866.38
2023-05-14T03:19:23.941Z,101860.44
2023-05-14T03:24:25.667Z,101862.72
2023-05-14T03:29:27.372Z,101858.00
2023-05-14T03:34:29.479Z,101869.22
2023-05-14T03:39:31.192Z,101850.09
2023-05-14T03:44:32.869Z,101859.56
2023-05-14T03:49:34.424Z,101853.34
2023-05-14T03:54:36.153Z,101847.50
2023-05-14T03:59:37.842Z,101855.13
2023-05-14T04:04:40.179Z,101850.66
2023-05-14T04:09:41.797Z,101844.88
2023-05-14T04:14:43.447Z,101858.72
2023-05-14T04:19:45.293Z,101852.56
2023-05-14T04:24:46.910Z,101865.44
2023-05-14T04:29:49.364Z,101848.06
2023-05-14T04:34:51.143Z,101844.38
2023-05-14T04:39:52.677Z,101848.00
2023-05-14T04:44:54.209Z,101842.66
2023-05-14T04:49:55.906Z,101848.16
2023-05-14T04:54:57.427Z,101852.09
2023-05-14T04:59:58.939Z,101849.72
2023-05-14T05:05:00.653Z,101851.63
2023-05-14T05:10:02.895Z,101853.53
2023-05-14T05:15:05.583Z,101853.44
2023-05-14T05:20:09.732Z,101845.63
2023-05-14T05:25:12.855Z,101847.84
2023-05-14T05:30:14.508Z,101853.41
2023-05-14T05:35:16.255Z,101843.25
2023-05-14T05:40:18.102Z,101834.78
2023-05-14T05:45:19.800Z,101847.63
2023-05-14T05:50:21.491Z,101853.34
2023-05-14T05:55:23.307Z,101849.88
2023-05-14T06:00:25.752Z,101849.03
2023-05-14T06:05:27.735Z,101851.06
2023-05-14T06:10:29.470Z,101854.50
2023-05-14T06:15:31.414Z,101849.78
2023-05-14T06:20:35.517Z,101855.34
2023-05-14T06:25:37.135Z,101854.09
2023-05-14T06:30:38.714Z,101855.91
2023-05-14T06:35:40.427Z,101850.22
2023-05-14T06:40:42.099Z,101848.84
2023-05-14T06:45:43.641Z,101849.41
2023-05-14T06:50:46.180Z,101849.31
2023-05-14T06:55:48.301Z,101846.97
2023-05-14T07:00:49.980Z,101838.72
2023-05-14T07:05:51.887Z,101851.00
2023-05-14T07:10:53.577Z,101858.66
2023-05-14T07:15:55.856Z,101844.19
2023-05-14T07:20:57.461Z,101847.03
2023-05-14T07:25:59.084Z,101839.63
2023-05-14T07:31:00.761Z,101830.41
2023-05-14T07:36:02.544Z,101836.53
2023-05-14T07:41:06.334Z,101827.75
2023-05-14T07:46:07.991Z,101826.06
2023-05-14T07:51:09.612Z,101820.81
2023-05-14T07:56:11.229Z,101825.94
2023-05-14T08:01:12.901Z,101825.09
2023-05-14T08:06:14.534Z,101811.25
2023-05-14T08:11:16.293Z,101823.94
2023-05-14T08:16:17.949Z,101818.66
2023-05-14T08:21:19.570Z,101803.06
2023-05-14T08:26:21.974Z,101811.41
2023-05-14T08:31:23.789Z,101807.53
2023-05-14T08:36:25.638Z,101798.78
2023-05-14T08:41:27.479Z,101802.69
2023-05-14T08:46:31.052Z,101803.09
2023-05-14T08:51:33.390Z,101799.22
2023-05-14T08:56:36.049Z,101802.69
2023-05-14T09:01:42.101Z,101797.44
2023-05-14T09:06:45.117Z,101780.66
2023-05-14T09:11:47.726Z,101778.41
2023-05-14T09:16:51.146Z,101784.53
2023-05-14T09:21:56.265Z,101775.59
2023-05-14T09:26:58.379Z,101774.41
2023-05-14T09:32:04.976Z,101758.91
2023-05-14T09:37:10.251Z,101753.03
2023-05-14T09:42:11.841Z,101748.00
2023-05-14T09:47:15.457Z,101739.59
2023-05-14T09:52:19.394Z,101741.53
2023-05-14T09:57:21.306Z,101733.28
2023-05-14T10:02:25.719Z,101734.97
2023-05-14T10:07:31.638Z,101733.41
2023-05-14T10:12:36.770Z,101732.41
2023-05-14T10:17:43.932Z,101719.03
2023-05-14T10:22:46.534Z,101732.06
2023-05-14T10:27:48.389Z,101726.47
2023-05-14T10:33:05.911Z,101722.13
2023-05-14T10:38:10.752Z,101715.56
2023-05-14T10:43:12.576Z,101719.47
2023-05-14T10:48:14.508Z,101709.41
2023-05-14T10:53:16.213Z,101708.41
2023-05-14T10:58:18.128Z,101701.00
2023-05-14T11:03:21.175Z,101699.66
2023-05-14T11:08:25.968Z,101692.03
2023-05-14T11:13:28.955Z,101681.41
2023-05-14T11:18:38.735Z,101686.41
2023-05-14T11:23:40.870Z,101677.31
2023-05-14T11:28:42.533Z,101674.78
2023-05-14T11:33:44.553Z,101674.16
2023-05-14T11:38:51.330Z,101662.50
2023-05-14T11:43:53.156Z,101662.63
2023-05-14T11:48:54.709Z,101668.44
2023-05-14T11:53:58.924Z,101652.81
2023-05-14T11:59:03.737Z,101655.13
2023-05-14T12:04:05.672Z,101659.03
2023-05-14T12:09:07.450Z,101651.88
2023-05-14T12:14:16.965Z,101638.25
2023-05-14T12:19:20.717Z,101639.88
2023-05-14T12:24:25.487Z,101630.34
2023-05-14T12:29:27.073Z,101633.09
2023-05-14T12:34:28.635Z,101625.56
2023-05-14T12:39:32.849Z,101624.78
2023-05-14T12:44:34.487Z,101620.03
2023-05-14T12:49:36.279Z,101614.44
2023-05-14T12:54:42.284Z,101614.09
2023-05-14T12:59:44.415Z,101610.75
2023-05-14T13:04:45.961Z,101612.81
2023-05-14T13:09:47.467Z,101606.72
2023-05-14T13:14:49.028Z,101603.88
2023-05-14T13:19:50.599Z,101600.47
2023-05-14T13:24:52.158Z,101604.72
2023-05-14T13:29:53.835Z,101602.47
2023-05-14T13:34:55.752Z,101595.91
2023-05-14T13:39:57.290Z,101589.94
2023-05-14T13:45:00.179Z,101582.75
2023-05-14T13:50:01.779Z,101578.88
2023-05-14T13:55:03.875Z,101575.59
2023-05-14T14:00:06.711Z,101571.72
2023-05-14T14:05:08.783Z,101563.41
2023-05-14T14:10:10.490Z,101556.81
2023-05-14T14:15:12.087Z,101556.69
2023-05-14T14:20:13.656Z,101553.44
2023-05-14T14:25:15.392Z,101552.72
2023-05-14T14:30:17.318Z,101546.53
2023-05-14T14:35:20.022Z,101543.13
2023-05-14T14:40:23.710Z,101538.13
2023-05-14T14:45:25.614Z,101535.47
2023-05-14T14:50:27.379Z,101520.06
2023-05-14T14:55:28.967Z,101529.59
2023-05-14T15:00:30.706Z,101519.28
2023-05-14T15:05:32.335Z,101520.75
2023-05-14T15:10:37.830Z,101517.59
2023-05-14T15:15:39.539Z,101518.91
2023-05-14T15:20:41.106Z,101511.53
2023-05-14T15:25:42.731Z,101506.41
2023-05-14T15:30:44.306Z,101502.63
2023-05-14T15:35:46.133Z,101506.06
2023-05-14T15:40:48.703Z,101505.84
2023-05-14T15:45:50.476Z,101501.31
2023-05-14T15:50:52.724Z,101498.19
2023-05-14T15:55:54.481Z,101490.81
2023-05-14T16:00:56.076Z,101492.03
2023-05-14T16:05:57.630Z,101486.63
2023-05-14T16:10:59.145Z,101498.00
2023-05-14T16:16:01.428Z,101485.47
2023-05-14T16:21:03.651Z,101485.78
2023-05-14T16:26:06.036Z,101482.72
2023-05-14T16:31:10.048Z,101485.31
2023-05-14T16:36:11.805Z,101481.09
2023-05-14T16:41:13.330Z,101482.84
2023-05-14T16:46:15.137Z,101470.47
2023-05-14T16:51:16.987Z,101467.38
2023-05-14T16:56:18.563Z,101476.84
2023-05-14T17:01:20.230Z,101473.09
2023-05-14T17:06:23.758Z,101464.66
2023-05-14T17:11:25.278Z,101467.75
2023-05-14T17:16:27.181Z,101460.34
2023-05-14T17:21:28.811Z,101462.47
2023-05-14T17:26:33.096Z,101467.69
2023-05-14T17:31:35.048Z,101469.13
2023-05-14T17:36:36.690Z,101475.44
2023-05-14T17:41:38.245Z,101477.13
2023-05-14T17:46:41.561Z,101483.25
2023-05-14T17:51:43.365Z,101482.75
2023-05-14T17:56:45.108Z,101484.13
2023-05-14T18:01:46.845Z,101488.94
2023-05-14T18:06:48.424Z,101494.44
2023-05-14T18:11:50.027Z,101491.25
2023-05-14T18:16:51.704Z,101490.53
2023-05-14T18:21:55.545Z,101494.06
2023-05-14T18:26:57.262Z,101496.25
2023-05-14T18:31:58.813Z,101488.63
2023-05-14T18:37:00.485Z,101493.91
2023-05-14T18:42:02.543Z,101498.44
2023-05-14T18:47:04.367Z,101501.13
2023-05-14T18:52:06.898Z,101504.22
2023-05-14T18:57:08.401Z,101507.38
2023-05-14T19:02:10.234Z,101508.97
2023-05-14T19:07:11.925Z,101509.13
2023-05-14T19:12:13.764Z,101512.28
2023-05-14T19:17:16.131Z,101517.31
2023-05-14T19:22:19.536Z,101523.16
2023-05-14T19:27:21.102Z,101530.09
2023-05-14T19:32:22.661Z,101533.69
2023-05-14T19:37:24.384Z,101537.31
2023-05-14T19:42:25.987Z,101539.16
2023-05-14T19:47:28.675Z,101538.16
2023-05-14T19:52:30.395Z,101549.50
2023-05-14T19:57:31.969Z,101554.88
2023-05-14T20:02:33.999Z,101555.78
2023-05-14T20:07:37.773Z,101559.28
2023-05-14T20:12:40.677Z,101550.50
2023-05-14T20:17:42.313Z,101559.28
2023-05-14T20:22:44.107Z,101555.81
2023-05-14T20:27:45.730Z,101550.56
2023-05-14T20:32:47.309Z,101552.31
2023-05-14T20:37:49.493Z,101544.50
2023-05-14T20:42:51.340Z,101556.69
2023-05-14T20:47:52.931Z,101548.78
2023-05-14T20:52:55.388Z,101554.97
2023-05-14T20:57:56.907Z,101561.91
2023-05-14T21:03:00.201Z,101561.03
2023-05-14T21:08:01.975Z,101546.25
2023-05-14T21:13:03.673Z,101543.66
2023-05-14T21:18:05.401Z,101541.03
2023-05-14T21:23:07.047Z,101547.03
2023-05-14T21:28:08.585Z,101541.84
2023-05-14T21:33:10.215Z,101538.31
2023-05-14T21:38:11.878Z,101533.19
2023-05-14T21:43:13.424Z,101536.56
2023-05-14T21:48:15.129Z,101534.69
2023-05-14T21:53:18.995Z,101526.84
2023-05-14T21:58:21.208Z,101514.81
2023-05-14T22:03:22.903Z,101518.22
2023-05-14T22:08:24.545Z,101518.81
2023-05-14T22:13:26.138Z,101510.94
2023-05-14T22:18:27.702Z,101511.50
2023-05-14T22:23:29.299Z,101511.59
2023-05-14T22:28:31.001Z,101518.59
2023-05-14T22:33:33.270Z,101519.53
2023-05-14T22:38:35.181Z,101504.06
2023-05-14T22:43:36.775Z,101509.50
2023-05-14T22:48:38.362Z,101503.69
2023-05-14T22:53:39.966Z,101502.97
2023-05-14T22:58:41.580Z,101503.00
2023-05-14T23:03:43.092Z,101500.16
2023-05-14T23:08:44.703Z,101484.66
2023-05-14T23:13:46.304Z,101481.97
2023-05-14T23:18:48.018Z,101477.53
2023-05-14T23:23:52.568Z,101471.53
2023-05-14T23:28:54.169Z,101458.72
2023-05-14T23:33:56.990Z,101463.09
2023-05-14T23:38:59.377Z,101463.91
2023-05-14T23:44:00.913Z,101460.50
2023-05-14T23:49:02.730Z,101455.97
2023-05-14T23:54:04.752Z,101455.88
2023-05-14T23:59:06.531Z,101445.53
